createdAt,value
2019-02-07T00:03:44.443Z,0.17
2019-02-07T00:06:13.082Z,0.01
2019-02-07T00:08:41.644Z,-0.05
2019-02-07T00:11:10.253Z,-0.16
2019-02-07T00:13:39.021Z,-0.17
2019-02-07T00:16:07.991Z,-0.23
2019-02-07T00:18:36.954Z,-0.23
2019-02-07T00:21:05.721Z,-0.32
2019-02-07T00:23:34.280Z,-0.39
2019-02-07T00:26:02.900Z,-0.41
2019-02-07T00:28:31.450Z,-0.46
2019-02-07T00:31:02.145Z,-0.60
2019-02-07T00:33:32.486Z,-0.59
2019-02-07T00:36:01.317Z,-0.63
2019-02-07T00:38:30.375Z,-0.73
2019-02-07T00:40:58.939Z,-0.79
2019-02-07T00:43:27.579Z,-0.80
2019-02-07T00:45:56.212Z,-0.79
2019-02-07T00:48:24.803Z,-0.83
2019-02-07T00:50:53.358Z,-0.83
2019-02-07T00:53:21.935Z,-0.86
2019-02-07T00:55:50.649Z,-0.89
2019-02-07T00:58:19.228Z,-0.95
2019-02-07T01:00:47.869Z,-1.00
2019-02-07T01:03:16.446Z,-1.04
2019-02-07T01:05:45.260Z,-1.07
2019-02-07T01:08:14.240Z,-1.09
2019-02-07T01:10:42.957Z,-1.11
2019-02-07T01:13:11.602Z,-1.06
2019-02-07T01:15:40.168Z,-1.07
2019-02-07T01:18:09.351Z,-0.99
2019-02-07T01:20:38.850Z,-1.00
2019-02-07T01:23:07.510Z,-1.06
2019-02-07T01:25:36.133Z,-1.06
2019-02-07T01:28:08.025Z,-0.89
2019-02-07T01:30:36.721Z,-0.83
2019-02-07T01:33:05.411Z,-0.91
2019-02-07T01:35:34.453Z,-0.83
2019-02-07T01:38:03.062Z,-0.90
2019-02-07T01:40:33.163Z,-0.92
2019-02-07T01:43:03.386Z,-0.94
2019-02-07T01:45:35.276Z,-0.98
2019-02-07T01:48:03.991Z,-0.99
2019-02-07T01:50:33.013Z,-1.05
2019-02-07T01:53:03.171Z,-0.98
2019-02-07T01:55:33.427Z,-0.97
2019-02-07T01:58:05.219Z,-0.96
2019-02-07T02:00:36.897Z,-1.01
2019-02-07T02:03:05.933Z,-1.00
2019-02-07T02:05:34.627Z,-1.04
2019-02-07T02:08:03.236Z,-1.06
2019-02-07T02:10:34.727Z,-1.04
2019-02-07T02:13:03.337Z,-1.10
2019-02-07T02:15:35.135Z,-1.12
2019-02-07T02:18:04.139Z,-1.11
2019-02-07T02:20:35.939Z,-1.10
2019-02-07T02:23:04.651Z,-1.15
2019-02-07T02:25:33.236Z,-1.17
2019-02-07T02:28:01.971Z,-1.19
2019-02-07T02:30:35.847Z,-1.15
2019-02-07T02:33:05.333Z,-1.15
2019-02-07T02:35:34.246Z,-1.11
2019-02-07T02:38:02.797Z,-1.08
2019-02-07T02:40:31.374Z,-1.09
2019-02-07T02:43:00.650Z,-1.09
2019-02-07T02:45:37.466Z,-1.04
2019-02-07T02:48:02.255Z,-1.02
2019-02-07T02:50:30.925Z,-1.08
2019-02-07T02:52:59.538Z,-1.07
2019-02-07T02:55:32.435Z,-1.10
2019-02-07T02:58:03.710Z,-1.10
2019-02-07T03:03:28.850Z,-1.04
2019-02-07T03:05:59.163Z,-1.07
2019-02-07T03:08:35.120Z,-1.04
2019-02-07T03:11:22.995Z,-0.93
2019-02-07T03:13:53.291Z,-0.86
2019-02-07T03:16:32.459Z,-0.91
2019-02-07T03:22:06.352Z,-1.02
2019-02-07T03:24:45.348Z,-1.04
2019-02-07T03:27:31.538Z,-1.04
2019-02-07T03:32:55.062Z,-1.01
2019-02-07T03:38:06.606Z,-1.21
2019-02-07T03:40:43.102Z,-1.20
2019-02-07T03:43:31.204Z,-1.20
2019-02-07T03:46:07.120Z,-1.14
2019-02-07T03:48:37.403Z,-1.24
2019-02-07T03:51:11.034Z,-1.22
2019-02-07T03:53:53.236Z,-1.26
2019-02-07T03:56:39.927Z,-1.21
2019-02-07T03:59:16.363Z,-1.30
2019-02-07T04:01:58.649Z,-1.37
2019-02-07T04:04:34.628Z,-1.44
2019-02-07T04:07:10.616Z,-1.50
2019-02-07T04:09:52.647Z,-1.54
2019-02-07T04:12:39.294Z,-1.51
2019-02-07T04:15:09.839Z,-1.60
2019-02-07T04:17:43.189Z,-1.58
2019-02-07T04:20:16.642Z,-1.59
2019-02-07T04:22:55.672Z,-1.59
2019-02-07T04:25:32.169Z,-1.66
2019-02-07T04:28:20.237Z,-1.74
2019-02-07T04:30:53.261Z,-1.78
2019-02-07T04:36:27.771Z,-1.82
2019-02-07T04:39:14.722Z,-1.83
2019-02-07T04:41:48.023Z,-1.83
2019-02-07T04:44:27.104Z,-1.84
2019-02-07T04:47:03.094Z,-1.87
2019-02-07T04:49:50.732Z,-1.84
2019-02-07T04:52:23.908Z,-1.88
2019-02-07T04:54:56.575Z,-1.80
2019-02-07T04:57:38.684Z,-1.73
2019-02-07T05:00:18.176Z,-1.88
2019-02-07T05:02:54.239Z,-1.89
2019-02-07T05:05:27.193Z,-1.76
2019-02-07T05:08:06.147Z,-1.86
2019-02-07T05:10:36.496Z,-1.90
2019-02-07T05:16:14.389Z,-1.95
2019-02-07T05:18:47.605Z,-1.82
2019-02-07T05:21:33.144Z,-1.84
2019-02-07T05:24:10.636Z,-1.77
2019-02-07T05:26:49.804Z,-1.70
2019-02-07T05:29:38.077Z,-1.76
2019-02-07T05:32:08.566Z,-1.73
2019-02-07T05:34:38.819Z,-1.71
2019-02-07T05:37:11.779Z,-1.72
2019-02-07T05:39:50.554Z,-1.69
2019-02-07T05:42:37.065Z,-1.65
2019-02-07T05:45:22.719Z,-1.59
2019-02-07T05:47:55.365Z,-1.52
2019-02-07T05:50:31.337Z,-1.49
2019-02-07T05:53:13.567Z,-1.45
2019-02-07T05:55:44.229Z,-1.45
2019-02-07T05:58:17.877Z,-1.44
2019-02-07T06:00:54.162Z,-1.54
2019-02-07T06:03:27.587Z,-1.60
2019-02-07T06:06:00.707Z,-1.59
2019-02-07T06:08:43.157Z,-1.72
2019-02-07T06:11:13.927Z,-1.76
2019-02-07T06:13:44.276Z,-1.77
2019-02-07T06:16:20.264Z,-1.82
2019-02-07T06:18:50.479Z,-1.82
2019-02-07T06:21:33.092Z,-1.77
2019-02-07T06:24:04.822Z,-1.72
2019-02-07T06:26:40.803Z,-1.85
2019-02-07T06:29:13.797Z,-1.81
2019-02-07T06:31:59.110Z,-1.92
2019-02-07T06:34:47.478Z,-1.91
2019-02-07T06:37:17.735Z,-1.89
2019-02-07T06:40:03.813Z,-1.84
2019-02-07T06:42:50.607Z,-1.84
2019-02-07T06:45:20.816Z,-1.85
2019-02-07T06:47:53.943Z,-1.80
2019-02-07T06:50:27.023Z,-1.82
2019-02-07T06:53:13.814Z,-1.78
2019-02-07T06:55:49.844Z,-1.70
2019-02-07T06:58:23.117Z,-1.66
2019-02-07T07:00:53.335Z,-1.56
2019-02-07T07:03:26.288Z,-1.46
2019-02-07T07:05:56.594Z,-1.42
2019-02-07T07:08:42.184Z,-1.29
2019-02-07T07:11:12.400Z,-1.13
2019-02-07T07:13:54.900Z,-1.00
2019-02-07T07:16:25.169Z,-0.98
2019-02-07T07:18:55.729Z,-0.94
2019-02-07T07:21:25.974Z,-0.99
2019-02-07T07:23:56.248Z,-0.96
2019-02-07T07:26:44.830Z,-1.00
2019-02-07T07:32:23.284Z,-0.86
2019-02-07T07:34:54.003Z,-0.89
2019-02-07T07:37:42.175Z,-0.72
2019-02-07T07:40:24.530Z,-0.63
2019-02-07T07:42:55.222Z,-0.69
2019-02-07T07:45:25.422Z,-0.62
2019-02-07T07:48:11.899Z,-0.44
2019-02-07T07:50:53.765Z,-0.40
2019-02-07T07:53:36.106Z,-0.29
2019-02-07T07:56:13.153Z,-0.29
2019-02-07T07:59:01.382Z,-0.18
2019-02-07T08:01:43.721Z,-0.18
2019-02-07T08:04:13.971Z,-0.15
2019-02-07T08:06:56.398Z,0.06
2019-02-07T08:09:41.675Z,0.12
2019-02-07T08:12:11.929Z,0.13
2019-02-07T08:14:54.180Z,0.24
2019-02-07T08:17:47.491Z,0.32
2019-02-07T08:20:24.263Z,0.52
2019-02-07T08:22:57.204Z,0.50
2019-02-07T08:25:43.819Z,0.45
2019-02-07T08:28:16.732Z,0.48
2019-02-07T08:30:58.655Z,0.62
2019-02-07T08:33:32.358Z,0.59
2019-02-07T08:36:05.764Z,0.69
2019-02-07T08:38:49.906Z,0.81
2019-02-07T08:41:25.922Z,0.99
2019-02-07T08:44:17.603Z,1.12
2019-02-07T08:46:47.913Z,1.20
2019-02-07T08:49:32.223Z,1.30
2019-02-07T08:52:02.566Z,1.19
2019-02-07T08:54:41.929Z,1.19
2019-02-07T08:57:12.174Z,1.31
2019-02-07T08:59:42.417Z,1.39
2019-02-07T09:02:13.019Z,1.43
2019-02-07T09:04:43.220Z,1.47
2019-02-07T09:07:22.406Z,1.56
2019-02-07T09:10:08.546Z,1.43
2019-02-07T09:12:56.881Z,1.50
2019-02-07T09:18:12.783Z,1.50
2019-02-07T09:20:46.932Z,1.61
2019-02-07T09:23:33.627Z,1.59
2019-02-07T09:26:09.762Z,1.72
2019-02-07T09:28:40.401Z,1.56
2019-02-07T09:31:10.756Z,1.51
2019-02-07T09:33:44.194Z,1.51
2019-02-07T09:36:14.390Z,1.66
2019-02-07T09:39:03.581Z,1.58
2019-02-07T09:41:43.840Z,1.51
2019-02-07T09:46:55.827Z,1.84
2019-02-07T09:49:43.974Z,1.76
2019-02-07T09:52:14.234Z,1.89
2019-02-07T09:54:56.857Z,1.98
2019-02-07T09:57:30.419Z,2.09
2019-02-07T10:00:09.330Z,2.10
2019-02-07T10:02:39.557Z,2.10
2019-02-07T10:08:09.115Z,1.97
2019-02-07T10:10:39.322Z,1.82
2019-02-07T10:13:25.883Z,1.86
2019-02-07T10:16:02.243Z,1.84
2019-02-07T10:18:50.762Z,1.93
2019-02-07T10:21:37.706Z,2.03
2019-02-07T10:24:10.784Z,2.05
2019-02-07T10:26:59.094Z,2.10
2019-02-07T10:29:29.692Z,2.18
2019-02-07T10:32:06.064Z,2.22
2019-02-07T10:34:45.109Z,2.28
2019-02-07T10:37:21.546Z,2.23
2019-02-07T10:39:54.807Z,2.25
2019-02-07T10:42:40.544Z,2.48
2019-02-07T10:45:13.815Z,2.61
2019-02-07T10:48:02.819Z,2.72
2019-02-07T10:50:36.078Z,2.85
2019-02-07T10:53:06.340Z,2.99
2019-02-07T10:55:36.635Z,2.99
2019-02-07T10:58:13.270Z,3.03
2019-02-07T11:00:43.562Z,2.95
2019-02-07T11:03:33.544Z,3.21
2019-02-07T11:06:15.155Z,3.34
2019-02-07T11:08:45.422Z,3.34
2019-02-07T11:11:27.713Z,3.48
2019-02-07T11:13:58.261Z,3.63
2019-02-07T11:16:31.352Z,3.71
2019-02-07T11:19:21.292Z,3.77
2019-02-07T11:21:48.588Z,3.98
2019-02-07T11:24:25.323Z,3.99
2019-02-07T11:27:12.029Z,3.99
2019-02-07T11:29:44.659Z,4.09
2019-02-07T11:32:14.968Z,3.93
2019-02-07T11:34:48.004Z,4.09
2019-02-07T11:37:34.560Z,4.24
2019-02-07T11:40:07.729Z,4.33
2019-02-07T11:42:37.954Z,4.33
2019-02-07T11:45:17.305Z,4.21
2019-02-07T11:47:47.518Z,4.12
2019-02-07T11:50:35.332Z,3.98
2019-02-07T11:53:20.397Z,3.92
2019-02-07T11:58:42.400Z,3.86
2019-02-07T12:01:24.810Z,3.86
2019-02-07T12:04:00.883Z,4.03
2019-02-07T12:06:46.218Z,3.99
2019-02-07T12:09:28.581Z,4.12
2019-02-07T12:12:04.894Z,4.19
2019-02-07T12:14:37.835Z,4.19
2019-02-07T12:17:08.546Z,4.20
2019-02-07T12:19:41.586Z,4.30
2019-02-07T12:22:14.808Z,4.25
2019-02-07T12:24:50.809Z,4.25
2019-02-07T12:27:30.417Z,3.83
2019-02-07T12:30:00.713Z,3.83
2019-02-07T12:32:33.901Z,3.87
2019-02-07T12:35:07.579Z,3.99
2019-02-07T12:37:53.890Z,3.91
2019-02-07T12:40:42.084Z,3.88
2019-02-07T12:43:12.359Z,3.88
2019-02-07T12:45:42.579Z,3.91
2019-02-07T12:48:12.841Z,3.94
2019-02-07T12:51:00.538Z,3.89
2019-02-07T12:53:39.504Z,3.83
2019-02-07T12:56:22.225Z,3.84
2019-02-07T12:59:04.584Z,3.90
2019-02-07T13:01:38.522Z,3.96
2019-02-07T13:04:28.006Z,3.96
2019-02-07T13:07:14.050Z,3.96
2019-02-07T13:09:46.794Z,4.37
2019-02-07T13:12:19.836Z,4.18
2019-02-07T13:14:56.797Z,4.18
2019-02-07T13:17:29.890Z,4.12
2019-02-07T13:20:03.033Z,4.03
2019-02-07T13:22:42.186Z,4.08
2019-02-07T13:25:12.985Z,3.94
2019-02-07T13:27:52.362Z,3.86
2019-02-07T13:30:28.743Z,3.78
2019-02-07T13:32:58.962Z,3.50
2019-02-07T13:35:38.188Z,3.51
2019-02-07T13:38:11.268Z,3.57
2019-02-07T13:40:53.307Z,3.56
2019-02-07T13:43:29.259Z,3.60
2019-02-07T13:46:16.640Z,3.85
2019-02-07T13:49:03.381Z,3.85
2019-02-07T13:51:52.740Z,3.85
2019-02-07T13:54:28.897Z,3.77
2019-02-07T13:57:02.197Z,3.80
2019-02-07T13:59:38.591Z,3.77
2019-02-07T14:02:19.490Z,3.59
2019-02-07T14:04:49.758Z,3.58
2019-02-07T14:07:20.088Z,3.69
2019-02-07T14:09:59.099Z,3.90
2019-02-07T14:12:35.263Z,3.90
2019-02-07T14:15:12.982Z,3.95
2019-02-07T14:17:45.852Z,3.98
2019-02-07T14:20:25.268Z,4.03
2019-02-07T14:22:58.497Z,4.03
2019-02-07T14:25:38.133Z,4.17
2019-02-07T14:28:24.526Z,4.27
2019-02-07T14:31:06.124Z,4.02
2019-02-07T14:33:35.428Z,4.12
2019-02-07T14:36:08.562Z,4.12
2019-02-07T14:38:47.795Z,3.92
2019-02-07T14:44:26.757Z,3.85
2019-02-07T14:46:58.146Z,3.93
2019-02-07T14:49:27.106Z,4.02
2019-02-07T14:51:56.092Z,3.90
2019-02-07T14:54:25.047Z,4.02
2019-02-07T14:56:53.630Z,3.92
2019-02-07T14:59:22.256Z,3.92
2019-02-07T15:01:50.839Z,3.78
2019-02-07T15:04:19.803Z,3.72
2019-02-07T15:06:48.370Z,3.51
2019-02-07T15:09:17.280Z,3.63
2019-02-07T15:11:45.936Z,3.63
2019-02-07T15:14:14.562Z,3.55
2019-02-07T15:16:43.137Z,3.55
2019-02-07T15:19:11.957Z,3.74
2019-02-07T15:21:40.540Z,3.74
2019-02-07T15:24:09.407Z,3.82
2019-02-07T15:26:38.404Z,3.88
2019-02-07T15:29:07.407Z,3.82
2019-02-07T15:31:36.051Z,3.82
2019-02-07T15:34:05.052Z,3.77
2019-02-07T15:36:34.055Z,3.85
2019-02-07T15:39:03.073Z,3.70
2019-02-07T15:41:33.166Z,3.71
2019-02-07T15:44:03.641Z,3.67
2019-02-07T15:46:32.287Z,3.40
2019-02-07T15:49:00.844Z,3.40
2019-02-07T15:51:31.482Z,3.41
2019-02-07T15:53:59.784Z,3.39
2019-02-07T15:56:36.272Z,3.41
2019-02-07T15:59:09.934Z,3.41
2019-02-07T16:01:40.411Z,3.28
2019-02-07T16:04:13.428Z,3.27
2019-02-07T16:06:42.423Z,3.27
2019-02-07T16:09:11.493Z,3.18
2019-02-07T16:11:40.545Z,3.17
2019-02-07T16:14:12.517Z,3.08
2019-02-07T16:16:48.249Z,3.10
2019-02-07T16:19:18.154Z,3.12
2019-02-07T16:21:46.935Z,3.09
2019-02-07T16:24:16.186Z,3.01
2019-02-07T16:26:44.726Z,2.98
2019-02-07T16:29:13.654Z,3.04
2019-02-07T16:31:42.656Z,3.01
2019-02-07T16:34:11.760Z,3.04
2019-02-07T16:36:40.661Z,3.09
2019-02-07T16:39:09.881Z,3.08
2019-02-07T16:41:38.419Z,3.14
2019-02-07T16:44:07.143Z,3.17
2019-02-07T16:46:36.185Z,3.20
2019-02-07T16:49:05.228Z,3.21
2019-02-07T16:51:34.240Z,3.25
2019-02-07T16:54:02.821Z,3.23
2019-02-07T16:56:31.379Z,3.23
2019-02-07T16:59:02.257Z,3.19
2019-02-07T17:01:30.822Z,3.27
2019-02-07T17:04:00.696Z,3.23
2019-02-07T17:06:29.850Z,3.32
2019-02-07T17:08:58.434Z,3.32
2019-02-07T17:11:26.984Z,3.38
2019-02-07T17:13:55.634Z,3.43
2019-02-07T17:16:24.193Z,3.27
2019-02-07T17:18:53.173Z,3.23
2019-02-07T17:21:22.058Z,3.14
2019-02-07T17:23:50.642Z,2.95
2019-02-07T17:26:19.191Z,2.74
2019-02-07T17:28:47.822Z,2.84
2019-02-07T17:31:16.807Z,2.77
2019-02-07T17:33:45.393Z,2.70
2019-02-07T17:36:14.475Z,2.68
2019-02-07T17:38:43.215Z,2.70
2019-02-07T17:41:14.637Z,2.73
2019-02-07T17:43:43.212Z,2.67
2019-02-07T17:46:12.089Z,2.69
2019-02-07T17:48:40.990Z,2.66
2019-02-07T17:51:09.556Z,2.64
2019-02-07T17:53:38.140Z,2.70
2019-02-07T17:56:06.837Z,2.69
2019-02-07T17:58:35.561Z,2.71
2019-02-07T18:01:07.643Z,2.67
2019-02-07T18:03:36.646Z,2.68
2019-02-07T18:06:06.373Z,2.67
2019-02-07T18:08:38.513Z,2.67
2019-02-07T18:11:07.196Z,2.84
2019-02-07T18:13:35.895Z,2.83
2019-02-07T18:16:04.719Z,2.85
2019-02-07T18:18:33.277Z,2.88
2019-02-07T18:21:04.762Z,2.88
2019-02-07T18:23:33.328Z,2.97
2019-02-07T18:26:04.924Z,2.86
2019-02-07T18:28:33.541Z,2.91
2019-02-07T18:31:02.198Z,2.87
2019-02-07T18:33:31.243Z,2.74
2019-02-07T18:36:01.631Z,2.72
2019-02-07T18:38:33.085Z,2.74
2019-02-07T18:41:03.563Z,2.70
2019-02-07T18:43:32.207Z,2.68
2019-02-07T18:46:01.194Z,2.68
2019-02-07T18:48:32.321Z,2.57
2019-02-07T18:51:00.903Z,2.59
2019-02-07T18:53:32.144Z,2.51
2019-02-07T18:56:01.003Z,2.46
2019-02-07T18:58:32.175Z,2.49
2019-02-07T19:01:00.882Z,2.56
2019-02-07T19:03:30.675Z,2.40
2019-02-07T19:05:59.209Z,2.47
2019-02-07T19:08:27.769Z,2.48
2019-02-07T19:10:56.446Z,2.42
2019-02-07T19:13:25.003Z,2.43
2019-02-07T19:15:57.132Z,2.41
2019-02-07T19:18:25.705Z,2.38
2019-02-07T19:20:54.293Z,2.38
2019-02-07T19:23:23.049Z,2.48
2019-02-07T19:25:51.626Z,2.46
2019-02-07T19:28:20.194Z,2.36
2019-02-07T19:30:48.893Z,2.29
2019-02-07T19:33:17.544Z,2.21
2019-02-07T19:35:46.129Z,2.23
2019-02-07T19:38:14.896Z,2.15
2019-02-07T19:40:43.619Z,2.12
2019-02-07T19:43:12.179Z,2.21
2019-02-07T19:45:40.768Z,2.15
2019-02-07T19:48:09.772Z,2.21
2019-02-07T19:50:38.350Z,2.24
2019-02-07T19:53:07.230Z,2.40
2019-02-07T19:55:36.348Z,2.35
2019-02-07T19:58:05.601Z,2.39
2019-02-07T20:00:35.202Z,2.37
2019-02-07T20:03:03.902Z,2.31
2019-02-07T20:05:34.472Z,2.29
2019-02-07T20:08:03.389Z,2.18
2019-02-07T20:10:34.831Z,2.18
2019-02-07T20:13:03.396Z,2.02
2019-02-07T20:15:40.199Z,2.02
2019-02-07T20:18:09.996Z,1.97
2019-02-07T20:20:39.420Z,1.92
2019-02-07T20:23:09.323Z,1.81
2019-02-07T20:25:38.512Z,1.77
2019-02-07T20:28:07.173Z,1.73
2019-02-07T20:30:38.550Z,1.69
2019-02-07T20:33:08.249Z,1.62
2019-02-07T20:35:39.994Z,1.60
2019-02-07T20:38:09.994Z,1.58
2019-02-07T20:40:38.742Z,1.51
2019-02-07T20:43:07.857Z,1.52
2019-02-07T20:45:36.586Z,1.50
2019-02-07T20:48:06.785Z,1.51
2019-02-07T20:50:35.369Z,1.60
2019-02-07T20:53:05.338Z,1.59
2019-02-07T20:55:33.900Z,1.59
2019-02-07T20:58:05.897Z,1.59
2019-02-07T21:00:39.093Z,1.52
2019-02-07T21:03:08.110Z,1.52
2019-02-07T21:05:37.401Z,1.56
2019-02-07T21:08:06.242Z,1.53
2019-02-07T21:10:37.283Z,1.52
2019-02-07T21:13:06.572Z,1.48
2019-02-07T21:15:35.565Z,1.45
2019-02-07T21:18:05.216Z,1.40
2019-02-07T21:20:33.889Z,1.31
2019-02-07T21:23:05.256Z,1.36
2019-02-07T21:25:45.774Z,1.33
2019-02-07T21:28:15.715Z,1.34
2019-02-07T21:30:44.798Z,1.26
2019-02-07T21:33:16.039Z,1.35
2019-02-07T21:35:45.072Z,1.47
2019-02-07T21:38:14.731Z,1.61
2019-02-07T21:40:44.185Z,1.72
2019-02-07T21:43:13.558Z,1.76
2019-02-07T21:45:44.061Z,1.76
2019-02-07T21:48:33.586Z,1.70
2019-02-07T21:51:02.559Z,1.70
2019-02-07T21:53:33.685Z,1.77
2019-02-07T21:56:02.254Z,1.71
2019-02-07T21:58:32.572Z,1.73
2019-02-07T22:01:04.150Z,1.68
2019-02-07T22:03:36.011Z,1.69
2019-02-07T22:06:04.818Z,1.69
2019-02-07T22:08:33.776Z,1.68
2019-02-07T22:11:03.873Z,1.67
2019-02-07T22:13:34.000Z,1.64
2019-02-07T22:16:05.886Z,1.71
2019-02-07T22:18:34.476Z,1.72
2019-02-07T22:21:03.037Z,1.77
2019-02-07T22:23:34.923Z,1.82
2019-02-07T22:26:03.498Z,1.91
2019-02-07T22:28:32.502Z,2.02
2019-02-07T22:31:04.507Z,2.13
2019-02-07T22:33:33.244Z,2.33
2019-02-07T22:36:04.829Z,2.31
2019-02-07T22:38:33.593Z,2.39
2019-02-07T22:41:02.166Z,2.42
2019-02-07T22:43:30.740Z,2.43
2019-02-07T22:46:00.561Z,2.47
2019-02-07T22:48:29.167Z,2.44
2019-02-07T22:50:57.721Z,2.52
2019-02-07T22:53:26.370Z,2.66
2019-02-07T22:55:54.959Z,2.63
2019-02-07T22:58:26.494Z,2.65
2019-02-07T23:01:03.832Z,2.64
2019-02-07T23:03:33.937Z,2.57
2019-02-07T23:06:05.795Z,2.72
2019-02-07T23:08:34.488Z,2.67
2019-02-07T23:11:03.211Z,2.88
2019-02-07T23:13:34.690Z,2.85
2019-02-07T23:16:03.512Z,2.80
2019-02-07T23:18:32.067Z,2.72
2019-02-07T23:21:02.394Z,2.69
2019-02-07T23:23:31.092Z,2.67
2019-02-07T23:25:59.672Z,2.61
2019-02-07T23:28:28.239Z,2.68
2019-02-07T23:30:56.820Z,2.67
2019-02-07T23:33:25.449Z,2.51
2019-02-07T23:35:54.034Z,2.53
2019-02-07T23:38:22.880Z,2.45
2019-02-07T23:40:51.464Z,2.45
2019-02-07T23:43:20.091Z,2.37
2019-02-07T23:45:48.683Z,2.48
2019-02-07T23:48:17.238Z,2.48
2019-02-07T23:50:45.818Z,2.53
2019-02-07T23:53:15.366Z,2.57
2019-02-07T23:55:44.216Z,2.49
2019-02-07T23:58:13.243Z,2.47
